Dale Hollow Observed Data For Previous 48 Hours

Caption
Day and Hour Reservoir Elevation (behind dam)* Tailwater Elevation (below dam)* Average Hourly Discharge*
1/17/2018 1 AM CST 640.91 504.51 25
1/17/2018 2 AM CST 640.91 503.91 25
1/17/2018 3 AM CST 640.91 503.61 25
1/17/2018 4 AM CST 640.91 503.41 25
1/17/2018 5 AM CST 640.91 507.61 1,645
1/17/2018 6 AM CST 640.90 511.30 3,365
1/17/2018 7 AM CST 640.90 511.90 3,385
1/17/2018 8 AM CST 640.89 512.09 3,385
1/17/2018 9 AM CST 640.88 512.13 3,395
1/17/2018 10 AM CST 640.87 512.17 3,405
1/17/2018 11 AM CST 640.87 509.57 1,665
1/17/2018 12 PM CST 640.87 508.87 1,665
1/17/2018 1 PM CST 640.85 505.15 25
1/17/2018 2 PM CST 640.85 504.25 25
1/17/2018 3 PM CST 640.85 503.65 25
1/17/2018 4 PM CST 640.85 503.45 25
1/17/2018 5 PM CST 640.84 507.54 1,645
1/17/2018 6 PM CST 640.84 508.44 1,655
1/17/2018 7 PM CST 640.84 508.64 1,665
1/17/2018 8 PM CST 640.84 508.64 1,665
1/17/2018 9 PM CST 640.83 508.73 1,665
1/17/2018 10 PM CST 640.83 508.73 1,665
1/17/2018 11 PM CST 640.83 505.33 25
1/18/2018 12 AM CST 640.82 504.12 25
1/18/2018 1 AM CST 640.82 503.72 25
1/18/2018 2 AM CST 640.82 503.52 25
1/18/2018 3 AM CST 640.82 503.32 25
1/18/2018 4 AM CST 640.82 503.22 25
1/18/2018 5 AM CST 640.82 507.72 1,645
1/18/2018 6 AM CST 640.82 511.12 3,365
1/18/2018 7 AM CST 640.82 511.72 3,385
1/18/2018 8 AM CST 640.81 511.91 3,410
1/18/2018 9 AM CST 640.81 511.91 3,435
1/18/2018 10 AM CST 640.80 511.90 3,435
1/18/2018 11 AM CST 640.79 509.39 1,690
1/18/2018 12 PM CST 640.79 505.29 25
1/18/2018 1 PM CST 640.78 504.18 25
1/18/2018 2 PM CST 640.78 503.68 25
1/18/2018 3 PM CST 640.78 503.28 25
1/18/2018 4 PM CST 640.78 507.48 1,645
1/18/2018 5 PM CST 640.78 508.28 1,655
1/18/2018 6 PM CST 640.77 508.57 1,665
1/18/2018 7 PM CST 640.77 508.67 1,665
1/18/2018 8 PM CST 640.77 508.67 1,665
1/18/2018 9 PM CST 640.77 508.67 1,665

Elevations are in feet above sea level. Discharges are in cubic feet per second and are reported at the end of the hour.